createdAt,value
2019-03-05T00:00:42.415Z,4.90
2019-03-05T00:03:13.692Z,5.00
2019-03-05T00:05:42.322Z,5.10
2019-03-05T00:08:15.445Z,5.20
2019-03-05T00:10:47.681Z,5.30
2019-03-05T00:13:22.030Z,5.30
2019-03-05T00:15:51.381Z,5.30
2019-03-05T00:18:21.481Z,5.30
2019-03-05T00:20:51.504Z,5.30
2019-03-05T00:23:42.049Z,5.20
2019-03-05T00:26:13.103Z,5.20
2019-03-05T00:28:59.371Z,5.30
2019-03-05T00:31:41.342Z,5.30
2019-03-05T00:34:18.548Z,5.40
2019-03-05T00:36:54.432Z,5.40
2019-03-05T00:39:45.626Z,5.50
2019-03-05T00:42:53.325Z,5.50
2019-03-05T00:45:36.990Z,5.50
2019-03-05T00:48:53.458Z,5.50
2019-03-05T00:51:34.076Z,5.50
2019-03-05T00:54:26.466Z,5.50
2019-03-05T00:57:00.837Z,5.40
2019-03-05T00:59:47.293Z,5.40
2019-03-05T01:02:23.014Z,5.40
2019-03-05T01:04:57.091Z,5.40
2019-03-05T01:07:28.565Z,5.50
2019-03-05T01:09:56.956Z,5.50
2019-03-05T01:12:26.988Z,5.50
2019-03-05T01:15:01.369Z,5.50
2019-03-05T01:17:29.782Z,5.50
2019-03-05T01:19:58.413Z,5.50
2019-03-05T01:22:47.649Z,5.60
2019-03-05T01:25:33.798Z,5.60
2019-03-05T01:28:02.281Z,5.60
2019-03-05T01:30:59.149Z,5.60
2019-03-05T01:33:29.185Z,5.60
2019-03-05T01:36:07.744Z,5.60
2019-03-05T01:38:56.222Z,5.60
2019-03-05T01:41:26.249Z,5.60
2019-03-05T01:43:59.487Z,5.60
2019-03-05T01:46:27.877Z,5.60
2019-03-05T01:49:02.233Z,5.60
2019-03-05T01:51:30.645Z,5.60
2019-03-05T01:54:01.582Z,5.50
2019-03-05T01:56:29.957Z,5.40
2019-03-05T01:58:58.340Z,5.30
2019-03-05T02:01:26.728Z,5.40
2019-03-05T02:03:57.849Z,5.40
2019-03-05T02:06:26.538Z,5.50
2019-03-05T02:08:54.986Z,5.50
2019-03-05T02:11:26.046Z,5.50
2019-03-05T02:13:54.432Z,5.50
2019-03-05T02:16:22.870Z,5.40
2019-03-05T02:18:51.267Z,5.40
2019-03-05T02:21:21.365Z,5.30
2019-03-05T02:24:04.426Z,5.30
2019-03-05T02:27:09.854Z,5.30
2019-03-05T02:29:45.785Z,5.30
2019-03-05T02:32:23.188Z,5.20
2019-03-05T02:34:57.478Z,5.20
2019-03-05T02:37:32.215Z,5.20
2019-03-05T02:40:18.056Z,5.20
2019-03-05T02:42:55.313Z,5.10
2019-03-05T02:45:43.582Z,5.10
2019-03-05T02:48:25.967Z,5.10
2019-03-05T02:51:00.105Z,5.00
2019-03-05T02:53:37.462Z,5.00
2019-03-05T02:56:25.233Z,5.10
2019-03-05T02:58:52.545Z,5.10
2019-03-05T03:01:34.455Z,5.10
2019-03-05T03:04:19.137Z,5.10
2019-03-05T03:06:48.806Z,5.10
2019-03-05T03:09:33.713Z,5.10
2019-03-05T03:12:10.980Z,5.10
2019-03-05T03:14:39.362Z,5.10
2019-03-05T03:17:07.746Z,5.10
2019-03-05T03:19:42.086Z,5.10
2019-03-05T03:22:14.801Z,5.10
2019-03-05T03:24:45.589Z,5.10
2019-03-05T03:27:22.753Z,5.10
2019-03-05T03:29:51.148Z,5.10
2019-03-05T03:32:22.170Z,5.10
2019-03-05T03:34:56.584Z,5.10
2019-03-05T03:37:25.206Z,5.10
2019-03-05T03:39:59.433Z,5.10
2019-03-05T03:42:30.890Z,5.10
2019-03-05T03:44:59.265Z,5.00
2019-03-05T03:47:29.194Z,5.00
2019-03-05T03:50:00.511Z,5.00
2019-03-05T03:52:31.422Z,5.00
2019-03-05T03:55:05.651Z,5.00
2019-03-05T03:57:36.759Z,5.00
2019-03-05T04:00:08.220Z,5.00
2019-03-05T04:02:36.608Z,5.00
2019-03-05T04:05:08.346Z,5.00
2019-03-05T04:07:38.478Z,5.00
2019-03-05T04:10:14.331Z,5.00
2019-03-05T04:12:43.786Z,5.00
2019-03-05T04:15:18.223Z,4.90
2019-03-05T04:17:50.186Z,5.00
2019-03-05T04:20:28.396Z,5.00
2019-03-05T04:22:59.805Z,5.00
2019-03-05T04:25:33.753Z,4.90
2019-03-05T04:28:02.383Z,4.90
2019-03-05T04:30:30.765Z,4.90
2019-03-05T04:33:02.095Z,4.90
2019-03-05T04:35:36.033Z,4.80
2019-03-05T04:38:05.276Z,4.90
2019-03-05T04:40:33.901Z,4.90
2019-03-05T04:43:02.316Z,4.90
2019-03-05T04:45:56.196Z,5.00
2019-03-05T04:48:27.554Z,5.00
2019-03-05T04:51:03.068Z,5.00
2019-03-05T04:53:31.466Z,5.00
2019-03-05T04:56:02.464Z,5.00
2019-03-05T04:58:33.537Z,5.00
2019-03-05T05:01:04.717Z,5.00
2019-03-05T05:03:34.749Z,5.00
2019-03-05T05:06:06.433Z,5.00
2019-03-05T05:08:34.817Z,4.90
2019-03-05T05:11:07.862Z,4.90
2019-03-05T05:13:36.239Z,4.90
2019-03-05T05:16:04.945Z,4.90
2019-03-05T05:18:33.326Z,4.90
2019-03-05T05:21:01.776Z,4.90
2019-03-05T05:23:33.141Z,4.90
2019-03-05T05:26:03.162Z,4.90
2019-03-05T05:28:33.193Z,4.90
2019-03-05T05:31:03.251Z,4.80
2019-03-05T05:33:31.677Z,4.80
2019-03-05T05:36:02.747Z,4.80
2019-03-05T05:38:31.126Z,4.80
2019-03-05T05:41:03.758Z,4.80
2019-03-05T05:43:37.749Z,4.80
2019-03-05T05:46:06.140Z,4.80
2019-03-05T05:48:34.775Z,4.80
2019-03-05T05:51:03.159Z,4.80
2019-03-05T05:53:36.375Z,4.80
2019-03-05T05:56:04.823Z,4.80
2019-03-05T05:58:36.195Z,4.90
2019-03-05T06:01:06.221Z,4.90
2019-03-05T06:03:34.612Z,4.90
2019-03-05T06:06:06.149Z,5.00
2019-03-05T06:08:34.538Z,5.00
2019-03-05T06:11:03.174Z,5.00
2019-03-05T06:13:34.770Z,5.00
2019-03-05T06:16:03.151Z,5.10
2019-03-05T06:18:33.086Z,5.10
2019-03-05T06:21:05.210Z,5.10
2019-03-05T06:23:37.510Z,5.10
2019-03-05T06:26:08.914Z,5.10
2019-03-05T06:28:37.269Z,5.10
2019-03-05T06:31:05.902Z,5.10
2019-03-05T06:33:34.289Z,5.10
2019-03-05T06:36:05.711Z,5.20
2019-03-05T06:38:34.100Z,5.20
2019-03-05T06:41:02.546Z,5.30
2019-03-05T06:43:31.017Z,5.30
2019-03-05T06:45:59.390Z,5.30
2019-03-05T06:48:27.791Z,5.30
2019-03-05T06:50:56.413Z,5.30
2019-03-05T06:53:25.040Z,5.40
2019-03-05T06:55:53.417Z,5.40
2019-03-05T06:58:21.805Z,5.50
2019-03-05T07:00:50.186Z,5.50
2019-03-05T07:03:18.587Z,5.50
2019-03-05T07:06:23.408Z,5.50
2019-03-05T07:09:12.677Z,5.50
2019-03-05T07:11:53.013Z,5.50
2019-03-05T07:14:30.457Z,5.50
2019-03-05T07:17:04.657Z,5.50
2019-03-05T07:19:57.967Z,5.50
2019-03-05T07:22:30.877Z,5.50
2019-03-05T07:24:59.273Z,5.50
2019-03-05T07:27:48.593Z,5.50
2019-03-05T07:30:18.297Z,5.60
2019-03-05T07:32:47.613Z,5.70
2019-03-05T07:35:18.413Z,5.80
2019-03-05T07:37:46.961Z,6.00
2019-03-05T07:40:15.593Z,6.10
2019-03-05T07:42:49.021Z,6.20
2019-03-05T07:45:17.521Z,6.30
2019-03-05T07:47:45.970Z,6.40
2019-03-05T07:50:15.096Z,6.50
2019-03-05T07:52:43.481Z,6.50
2019-03-05T07:55:15.104Z,6.60
2019-03-05T07:57:46.886Z,6.60
2019-03-05T08:00:24.163Z,6.70
2019-03-05T08:02:55.205Z,6.60
2019-03-05T08:05:23.586Z,6.60
2019-03-05T08:07:53.685Z,6.60
2019-03-05T08:10:30.058Z,6.60
2019-03-05T08:13:13.529Z,6.60
2019-03-05T08:16:08.626Z,6.60
2019-03-05T08:18:38.682Z,6.60
2019-03-05T08:21:07.826Z,6.60
2019-03-05T08:23:36.451Z,6.60
2019-03-05T08:26:05.601Z,6.70
2019-03-05T08:28:38.053Z,6.70
2019-03-05T08:31:06.447Z,6.70
2019-03-05T08:33:39.257Z,6.70
2019-03-05T08:36:10.365Z,6.70
2019-03-05T08:38:38.746Z,6.70
2019-03-05T08:41:07.161Z,6.80
2019-03-05T08:43:38.433Z,6.90
2019-03-05T08:46:07.019Z,7.00
2019-03-05T08:48:35.420Z,7.00
2019-03-05T08:51:04.040Z,7.10
2019-03-05T08:53:32.421Z,7.20
2019-03-05T08:56:03.541Z,7.20
2019-03-05T08:58:34.625Z,7.10
2019-03-05T09:01:03.667Z,7.10
2019-03-05T09:03:38.479Z,7.10
2019-03-05T09:06:07.657Z,7.10
2019-03-05T09:08:38.377Z,7.10
2019-03-05T09:11:09.490Z,7.10
2019-03-05T09:13:39.036Z,7.10
2019-03-05T09:16:10.702Z,7.20
2019-03-05T09:18:39.143Z,7.20
2019-03-05T09:21:07.676Z,7.20
2019-03-05T09:23:38.597Z,7.30
2019-03-05T09:26:07.870Z,7.30
2019-03-05T09:28:42.073Z,7.40
2019-03-05T09:31:10.533Z,7.40
2019-03-05T09:33:41.580Z,7.40
2019-03-05T09:36:10.645Z,7.40
2019-03-05T09:38:39.031Z,7.40
2019-03-05T09:41:07.732Z,7.50
2019-03-05T09:43:36.168Z,7.50
2019-03-05T09:46:05.536Z,7.50
2019-03-05T09:48:33.914Z,7.50
2019-03-05T09:51:04.010Z,7.50
2019-03-05T09:53:34.242Z,7.50
2019-03-05T09:56:04.491Z,7.40
2019-03-05T09:58:32.853Z,7.40
2019-03-05T10:01:05.453Z,7.30
2019-03-05T10:03:33.894Z,7.30
2019-03-05T10:06:02.591Z,7.40
2019-03-05T10:08:32.753Z,7.40
2019-03-05T10:11:04.052Z,7.30
2019-03-05T10:13:32.518Z,7.30
2019-03-05T10:16:01.175Z,7.30
2019-03-05T10:18:29.553Z,7.20
2019-03-05T10:20:57.999Z,7.10
2019-03-05T10:23:31.597Z,6.80
2019-03-05T10:25:59.977Z,6.50
2019-03-05T10:28:33.817Z,6.20
2019-03-05T10:31:04.950Z,6.10
2019-03-05T10:33:37.797Z,6.00
2019-03-05T10:36:06.875Z,6.00
2019-03-05T10:38:36.998Z,6.10
2019-03-05T10:41:06.926Z,6.10
2019-03-05T10:43:35.301Z,6.10
2019-03-05T10:46:04.458Z,6.10
2019-03-05T10:48:32.840Z,6.20
2019-03-05T10:51:01.229Z,6.20
2019-03-05T10:53:32.350Z,6.30
2019-03-05T10:56:00.741Z,6.40
2019-03-05T10:58:33.920Z,6.40
2019-03-05T11:00:59.301Z,6.40
2019-03-05T11:03:30.526Z,6.50
2019-03-05T11:06:05.441Z,6.50
2019-03-05T11:08:33.828Z,6.60
2019-03-05T11:11:12.687Z,6.60
2019-03-05T11:13:32.398Z,6.60
2019-03-05T11:16:03.921Z,6.50
2019-03-05T11:18:34.118Z,6.50
2019-03-05T11:21:02.889Z,6.50
2019-03-05T11:23:32.287Z,6.40
2019-03-05T11:26:02.305Z,6.30
2019-03-05T11:28:59.003Z,6.30
2019-03-05T11:31:27.745Z,6.30
2019-03-05T11:33:59.059Z,6.30
2019-03-05T11:36:27.520Z,6.30
2019-03-05T11:38:56.219Z,6.40
2019-03-05T11:41:26.234Z,6.50
2019-03-05T11:43:54.836Z,6.40
2019-03-05T11:46:23.625Z,6.40
2019-03-05T11:48:52.256Z,6.40
2019-03-05T11:51:39.977Z,6.40
2019-03-05T11:54:11.347Z,6.40
2019-03-05T11:56:42.966Z,6.40
2019-03-05T11:59:11.350Z,6.40
2019-03-05T12:01:41.269Z,6.40
2019-03-05T12:04:13.969Z,6.50
2019-03-05T12:06:42.345Z,6.50
2019-03-05T12:09:10.741Z,6.70
2019-03-05T12:11:39.125Z,6.80
2019-03-05T12:14:07.509Z,7.10
2019-03-05T12:16:35.903Z,7.20
2019-03-05T12:19:04.971Z,7.20
2019-03-05T12:21:33.364Z,7.20
2019-03-05T12:24:01.977Z,7.20
2019-03-05T12:26:30.643Z,7.10
2019-03-05T12:29:03.839Z,7.10
2019-03-05T12:31:32.726Z,7.20
2019-03-05T12:34:01.786Z,7.30
2019-03-05T12:36:34.337Z,7.40
2019-03-05T12:39:06.430Z,7.50
2019-03-05T12:41:36.017Z,7.50
2019-03-05T12:44:05.540Z,7.50
2019-03-05T12:46:35.385Z,7.40
2019-03-05T12:49:04.889Z,7.40
2019-03-05T12:51:33.678Z,7.40
2019-03-05T12:54:05.653Z,7.30
2019-03-05T12:56:35.912Z,7.10
2019-03-05T12:59:05.775Z,7.00
2019-03-05T13:01:36.370Z,6.80
2019-03-05T13:04:05.947Z,6.80
2019-03-05T13:06:34.699Z,6.70
2019-03-05T13:09:05.494Z,6.80
2019-03-05T13:11:34.194Z,6.80
2019-03-05T13:14:06.086Z,6.90
2019-03-05T13:16:35.295Z,6.90
2019-03-05T13:19:09.529Z,7.10
2019-03-05T13:21:37.363Z,7.20
2019-03-05T13:24:09.961Z,7.40
2019-03-05T13:26:41.073Z,7.60
2019-03-05T13:29:08.640Z,7.80
2019-03-05T13:31:42.170Z,8.10
2019-03-05T13:34:14.127Z,8.40
2019-03-05T13:36:46.899Z,8.60
2019-03-05T13:39:18.234Z,8.80
2019-03-05T13:41:45.676Z,8.80
2019-03-05T13:44:33.999Z,8.80
2019-03-05T13:47:04.635Z,8.60
2019-03-05T13:49:40.826Z,8.50
2019-03-05T13:52:24.069Z,8.40
2019-03-05T13:55:08.789Z,8.10
2019-03-05T13:57:46.325Z,8.20
2019-03-05T14:00:16.348Z,8.90
2019-03-05T14:02:59.665Z,10.00
2019-03-05T14:05:53.925Z,10.40
2019-03-05T14:08:37.430Z,10.10
2019-03-05T14:11:06.383Z,10.20
2019-03-05T14:13:34.916Z,11.00
2019-03-05T14:16:05.604Z,11.80
2019-03-05T14:18:33.984Z,12.90
2019-03-05T14:21:03.902Z,13.70
2019-03-05T14:23:35.266Z,14.20
2019-03-05T14:26:06.635Z,13.80
2019-03-05T14:28:35.109Z,14.50
2019-03-05T14:31:06.430Z,14.90
2019-03-05T14:33:34.817Z,14.20
2019-03-05T14:36:03.218Z,13.60
2019-03-05T14:38:32.364Z,12.60
2019-03-05T14:41:01.178Z,11.50
2019-03-05T14:43:30.217Z,11.00
2019-03-05T14:45:59.206Z,10.60
2019-03-05T14:48:28.613Z,10.50
2019-03-05T14:50:57.011Z,10.30
2019-03-05T14:53:25.475Z,10.00
2019-03-05T14:55:54.628Z,9.80
2019-03-05T14:58:26.300Z,9.60
2019-03-05T15:00:56.675Z,9.40
2019-03-05T15:03:25.221Z,9.20
2019-03-05T15:05:53.634Z,9.00
2019-03-05T15:08:22.016Z,8.80
2019-03-05T15:10:50.447Z,8.70
2019-03-05T15:13:20.211Z,8.50
2019-03-05T15:15:48.988Z,8.80
2019-03-05T15:18:17.379Z,9.70
2019-03-05T15:20:51.517Z,10.20
2019-03-05T15:23:19.874Z,10.20
2019-03-05T15:25:48.290Z,11.20
2019-03-05T15:28:16.764Z,12.10
2019-03-05T15:30:45.337Z,12.20
2019-03-05T15:33:14.438Z,11.70
2019-03-05T15:35:42.877Z,11.10
2019-03-05T15:38:11.815Z,10.80
2019-03-05T15:40:40.196Z,10.60
2019-03-05T15:43:08.622Z,10.50
2019-03-05T15:45:37.318Z,10.40
2019-03-05T15:48:07.301Z,10.30
2019-03-05T15:50:35.719Z,10.20
2019-03-05T15:53:05.837Z,10.30
2019-03-05T15:55:37.353Z,10.40
2019-03-05T15:58:06.876Z,10.20
2019-03-05T16:00:36.851Z,10.00
2019-03-05T16:03:10.726Z,9.70
2019-03-05T16:05:58.835Z,9.20
2019-03-05T16:08:32.523Z,8.70
2019-03-05T16:11:01.067Z,8.40
2019-03-05T16:13:32.765Z,8.10
2019-03-05T16:16:08.017Z,8.00
2019-03-05T16:18:39.036Z,7.90
2019-03-05T16:21:08.306Z,7.80
2019-03-05T16:23:39.350Z,7.80
2019-03-05T16:26:07.742Z,7.70
2019-03-05T16:28:39.182Z,7.50
2019-03-05T16:31:13.861Z,7.30
2019-03-05T16:33:45.765Z,7.10
2019-03-05T16:36:25.504Z,7.10
2019-03-05T16:39:05.730Z,7.00
2019-03-05T16:41:48.197Z,6.90
2019-03-05T16:44:19.986Z,6.80
2019-03-05T16:46:58.816Z,6.70
2019-03-05T16:49:29.714Z,6.60
2019-03-05T16:52:17.296Z,6.40
2019-03-05T16:54:50.029Z,6.30
2019-03-05T16:57:37.242Z,6.00
2019-03-05T17:00:28.825Z,5.90
2019-03-05T17:03:06.562Z,5.70
2019-03-05T17:05:43.437Z,5.60
2019-03-05T17:08:30.814Z,5.50
2019-03-05T17:11:01.509Z,5.30
2019-03-05T17:13:30.113Z,5.20
2019-03-05T17:16:04.085Z,5.10
2019-03-05T17:18:32.913Z,5.00
2019-03-05T17:21:02.353Z,4.90
2019-03-05T17:23:31.513Z,4.90
2019-03-05T17:26:02.977Z,4.90
2019-03-05T17:28:31.365Z,4.90
2019-03-05T17:31:03.286Z,4.80
2019-03-05T17:33:34.895Z,4.80
2019-03-05T17:36:04.933Z,4.80
2019-03-05T17:38:34.204Z,4.80
2019-03-05T17:41:02.597Z,4.70
2019-03-05T17:43:31.065Z,4.60
2019-03-05T17:45:59.453Z,4.50
2019-03-05T17:48:27.849Z,4.40
2019-03-05T17:50:57.193Z,4.30
2019-03-05T17:53:25.822Z,4.30
2019-03-05T17:55:54.233Z,4.20
2019-03-05T17:58:22.634Z,4.30
2019-03-05T18:00:52.389Z,4.10
2019-03-05T18:03:20.766Z,4.10
2019-03-05T18:05:49.155Z,4.00
2019-03-05T18:08:17.621Z,4.00
2019-03-05T18:10:45.987Z,3.90
2019-03-05T18:13:14.365Z,3.90
2019-03-05T18:15:42.754Z,3.80
2019-03-05T18:18:11.133Z,3.80
2019-03-05T18:20:39.601Z,3.80
2019-03-05T18:23:09.274Z,3.80
2019-03-05T18:25:37.641Z,3.80
2019-03-05T18:28:06.107Z,3.80
2019-03-05T18:30:35.441Z,3.80
2019-03-05T18:33:03.833Z,3.80
2019-03-05T18:35:32.217Z,3.70
2019-03-05T18:38:00.892Z,3.70
2019-03-05T18:40:29.335Z,3.60
2019-03-05T18:42:59.354Z,3.70
2019-03-05T18:45:33.610Z,3.60
2019-03-05T18:48:01.985Z,3.70
2019-03-05T18:50:30.453Z,3.70
2019-03-05T18:53:00.214Z,3.80
2019-03-05T18:55:29.015Z,3.80
2019-03-05T18:57:57.651Z,3.90
2019-03-05T19:00:28.749Z,3.90
2019-03-05T19:03:11.665Z,3.90
2019-03-05T19:05:44.874Z,3.80
2019-03-05T19:08:15.015Z,3.80
2019-03-05T19:10:43.437Z,3.70
2019-03-05T19:13:11.889Z,3.70
2019-03-05T19:15:41.978Z,3.60
2019-03-05T19:18:16.277Z,3.60
2019-03-05T19:20:44.653Z,3.50
2019-03-05T19:23:14.684Z,3.40
2019-03-05T19:25:45.993Z,3.40
2019-03-05T19:28:14.462Z,3.40
2019-03-05T19:30:50.345Z,3.40
2019-03-05T19:33:18.745Z,3.30
2019-03-05T19:35:50.088Z,3.40
2019-03-05T19:38:19.141Z,3.40
2019-03-05T19:40:49.066Z,3.40
2019-03-05T19:43:19.430Z,3.40
2019-03-05T19:45:47.827Z,3.40
2019-03-05T19:48:16.448Z,3.40
2019-03-05T19:50:45.606Z,3.40
2019-03-05T19:53:13.969Z,3.40
2019-03-05T19:55:42.378Z,3.50
2019-03-05T19:58:12.648Z,3.50
2019-03-05T20:00:50.688Z,3.50
2019-03-05T20:03:19.067Z,3.50
2019-03-05T20:05:47.602Z,3.40
2019-03-05T20:08:18.705Z,3.30
2019-03-05T20:10:47.149Z,3.30
2019-03-05T20:13:16.219Z,3.30
2019-03-05T20:15:44.594Z,3.20
2019-03-05T20:18:15.919Z,3.10
2019-03-05T20:20:47.014Z,3.10
2019-03-05T20:23:15.402Z,3.00
2019-03-05T20:25:43.959Z,3.00
2019-03-05T20:28:15.077Z,3.00
2019-03-05T20:30:46.177Z,2.90
2019-03-05T20:33:14.629Z,2.80
2019-03-05T20:35:43.088Z,2.80
2019-03-05T20:38:11.727Z,2.80
2019-03-05T20:40:42.765Z,2.70
2019-03-05T20:43:11.156Z,2.60
2019-03-05T20:45:42.059Z,2.70
2019-03-05T20:48:10.451Z,2.60
2019-03-05T20:50:38.849Z,2.60
2019-03-05T20:53:12.619Z,2.70
2019-03-05T20:55:46.945Z,2.70
2019-03-05T20:58:15.336Z,2.70
2019-03-05T21:00:46.130Z,2.70
2019-03-05T21:03:14.582Z,2.70
2019-03-05T21:05:45.573Z,2.60
2019-03-05T21:08:13.990Z,2.60
2019-03-05T21:10:42.373Z,2.60
2019-03-05T21:13:11.043Z,2.60
2019-03-05T21:15:39.421Z,2.60
2019-03-05T21:18:11.133Z,2.60
2019-03-05T21:20:42.296Z,2.60
2019-03-05T21:23:12.477Z,2.60
2019-03-05T21:25:40.862Z,2.60
2019-03-05T21:28:09.257Z,2.50
2019-03-05T21:30:37.722Z,2.50
2019-03-05T21:33:10.738Z,2.40
2019-03-05T21:35:39.860Z,2.40
2019-03-05T21:38:08.255Z,2.50
2019-03-05T21:40:37.994Z,2.60
2019-03-05T21:43:09.461Z,2.70
2019-03-05T21:45:44.710Z,2.80
2019-03-05T21:48:13.106Z,2.80
2019-03-05T21:50:45.827Z,3.00
2019-03-05T21:53:15.848Z,3.20
2019-03-05T21:55:47.250Z,3.30
2019-03-05T21:58:15.634Z,3.40
2019-03-05T22:00:46.797Z,3.40
2019-03-05T22:03:15.205Z,3.40
2019-03-05T22:05:45.118Z,3.40
2019-03-05T22:08:13.743Z,3.40
2019-03-05T22:10:42.144Z,3.40
2019-03-05T22:13:10.521Z,3.50
2019-03-05T22:15:39.159Z,3.50
2019-03-05T22:18:07.539Z,3.60
2019-03-05T22:20:36.181Z,3.80
2019-03-05T22:23:06.288Z,4.00
2019-03-05T22:25:34.674Z,4.10
2019-03-05T22:28:03.289Z,4.20
2019-03-05T22:30:39.049Z,4.40
2019-03-05T22:33:09.847Z,4.50
2019-03-05T22:35:38.240Z,4.60
2019-03-05T22:38:06.680Z,4.60
2019-03-05T22:40:35.068Z,4.70
2019-03-05T22:43:04.859Z,4.80
2019-03-05T22:45:37.846Z,4.90
2019-03-05T22:48:06.248Z,4.90
2019-03-05T22:50:37.553Z,4.90
2019-03-05T22:53:05.945Z,5.00
2019-03-05T22:55:53.922Z,4.90
2019-03-05T22:58:22.558Z,5.00
2019-03-05T23:00:55.666Z,5.00
2019-03-05T23:03:26.756Z,5.00
2019-03-05T23:05:55.136Z,5.00
2019-03-05T23:08:24.068Z,5.00
2019-03-05T23:10:53.177Z,5.00
2019-03-05T23:13:24.245Z,5.00
2019-03-05T23:15:53.481Z,5.00
2019-03-05T23:18:23.502Z,5.10
2019-03-05T23:20:54.990Z,5.10
2019-03-05T23:23:26.062Z,5.00
2019-03-05T23:25:54.457Z,5.10
2019-03-05T23:28:23.619Z,5.10
2019-03-05T23:30:57.749Z,5.20
2019-03-05T23:33:26.207Z,5.20
2019-03-05T23:35:55.064Z,5.20
2019-03-05T23:38:24.276Z,5.20
2019-03-05T23:41:03.237Z,5.20
2019-03-05T23:43:31.610Z,5.20
2019-03-05T23:46:03.744Z,5.20
2019-03-05T23:48:32.138Z,5.30
2019-03-05T23:51:01.267Z,5.30
2019-03-05T23:53:35.281Z,5.30
2019-03-05T23:56:06.382Z,5.30
2019-03-05T23:58:37.418Z,5.30
